Time;durP1;ratioP1;P1;durP2;ratioP2;P2;SDS_P1;SDS_P2;PMS_P1;PMS_P2;Temp;Humidity;BMP_temperature;BMP_pressure;BME280_temperature;BME280_humidity;BME280_pressure;Samples;Min_cycle;Max_cycle;Signal;HPM_P1;HPM_P2
2023/06/28 00:01:00;;;;;;;6.63;2.50;;;16.30;99.90;;;;;;5024034;28;20257;-73
2023/06/28 00:03:27;;;;;;;5.63;2.17;;;16.30;99.90;;;;;;5017700;28;20765;-73
2023/06/28 00:05:52;;;;;;;5.30;2.55;;;16.30;99.90;;;;;;5017999;28;20216;-73
2023/06/28 00:08:18;;;;;;;7.18;2.60;;;16.20;99.90;;;;;;5020597;28;20173;-73
2023/06/28 00:10:44;;;;;;;4.15;2.20;;;16.20;99.90;;;;;;5019703;28;20201;-72
2023/06/28 00:13:10;;;;;;;11.27;2.88;;;16.20;99.90;;;;;;5022423;28;20220;-74
2023/06/28 00:15:35;;;;;;;4.80;2.63;;;16.20;99.90;;;;;;5019485;28;20204;-73
2023/06/28 00:18:02;;;;;;;6.40;2.10;;;16.20;99.90;;;;;;5022077;28;20262;-73
2023/06/28 00:20:28;;;;;;;7.10;2.53;;;16.20;99.90;;;;;;5023022;28;20177;-73
2023/06/28 00:22:54;;;;;;;11.77;2.70;;;16.10;99.90;;;;;;5019325;28;20186;-73
2023/06/28 00:25:20;;;;;;;6.32;2.45;;;16.10;99.90;;;;;;5022393;28;20196;-75
2023/06/28 00:27:46;;;;;;;4.45;2.25;;;16.10;99.90;;;;;;5024712;28;20746;-73
2023/06/28 00:30:12;;;;;;;6.15;2.53;;;16.00;99.90;;;;;;5025567;28;20291;-73
2023/06/28 00:32:38;;;;;;;8.05;2.38;;;16.10;99.90;;;;;;5027057;28;20193;-74
2023/06/28 00:35:05;;;;;;;4.55;2.40;;;16.10;99.90;;;;;;5023142;28;20581;-73
2023/06/28 00:37:31;;;;;;;4.78;2.40;;;16.00;99.90;;;;;;5021595;28;20290;-74
2023/06/28 00:39:58;;;;;;;7.15;2.58;;;16.00;99.90;;;;;;5016583;28;20629;-73
2023/06/28 00:42:23;;;;;;;3.20;2.20;;;15.90;99.90;;;;;;5022711;28;20725;-73
2023/06/28 00:44:49;;;;;;;6.15;2.50;;;15.90;99.90;;;;;;5019562;28;20225;-74
2023/06/28 00:47:15;;;;;;;5.25;2.58;;;16.00;99.90;;;;;;5027454;28;20176;-74
2023/06/28 00:49:42;;;;;;;6.38;2.55;;;15.90;99.90;;;;;;5023260;28;20445;-71
2023/06/28 00:52:12;;;;;;;5.50;2.58;;;15.90;99.90;;;;;;5021208;28;20239;-74
2023/06/28 00:54:39;;;;;;;8.10;3.30;;;15.90;99.90;;;;;;5025693;28;20258;-73
2023/06/28 00:57:05;;;;;;;7.93;3.50;;;15.90;99.90;;;;;;5022148;28;20208;-73
2023/06/28 00:59:31;;;;;;;5.55;3.30;;;15.90;99.90;;;;;;5022869;28;20571;-73
2023/06/28 01:01:57;;;;;;;5.20;2.25;;;15.90;99.90;;;;;;5027914;28;20200;-72
2023/06/28 01:04:23;;;;;;;5.90;2.80;;;15.90;99.90;;;;;;5028740;28;20207;-73
2023/06/28 01:06:54;;;;;;;5.57;2.80;;;15.80;99.90;;;;;;5025339;28;20287;-72
2023/06/28 01:09:21;;;;;;;8.20;2.65;;;15.80;99.90;;;;;;5027579;28;20200;-73
2023/06/28 01:11:50;;;;;;;7.32;3.15;;;15.80;99.90;;;;;;5025458;28;20281;-73
2023/06/28 01:14:16;;;;;;;7.15;2.97;;;15.80;99.90;;;;;;5027722;28;20199;-73
2023/06/28 01:16:42;;;;;;;9.80;3.30;;;15.80;99.90;;;;;;5024289;28;20231;-73
2023/06/28 01:19:14;;;;;;;4.55;2.53;;;15.80;99.90;;;;;;5022029;28;20545;-73
2023/06/28 01:21:45;;;;;;;5.60;2.97;;;15.80;99.90;;;;;;5024752;28;20299;-73
2023/06/28 01:24:12;;;;;;;6.45;3.10;;;15.80;99.90;;;;;;5024417;28;20224;-74
2023/06/28 01:26:39;;;;;;;8.52;3.17;;;15.80;99.90;;;;;;5034398;28;20190;-73
2023/06/28 01:29:06;;;;;;;4.90;2.40;;;15.90;99.90;;;;;;5024989;28;20252;-73
2023/06/28 01:31:32;;;;;;;7.25;3.20;;;15.80;99.90;;;;;;5025318;28;20219;-73
2023/06/28 01:33:57;;;;;;;8.93;3.20;;;15.80;99.90;;;;;;5022940;28;20209;-72
2023/06/28 01:36:23;;;;;;;4.00;2.65;;;15.90;99.90;;;;;;5024956;28;20200;-73
2023/06/28 01:38:50;;;;;;;9.25;3.17;;;15.80;99.90;;;;;;5021490;28;20216;-73
2023/06/28 01:41:17;;;;;;;5.40;2.83;;;15.80;99.90;;;;;;5024098;28;20189;-71
2023/06/28 01:43:43;;;;;;;5.45;3.03;;;15.80;99.90;;;;;;5026025;28;20307;-73
2023/06/28 01:46:09;;;;;;;4.95;2.30;;;15.80;99.90;;;;;;5023518;28;20703;-73
2023/06/28 01:48:35;;;;;;;6.20;2.92;;;15.90;99.90;;;;;;5031315;28;20200;-73
2023/06/28 01:51:01;;;;;;;6.53;3.22;;;15.80;99.90;;;;;;5025778;28;20598;-73
2023/06/28 01:53:27;;;;;;;7.30;2.67;;;15.80;99.90;;;;;;5024969;28;20185;-73
2023/06/28 01:55:52;;;;;;;7.00;3.08;;;15.80;99.90;;;;;;5023266;28;20189;-73
2023/06/28 01:58:18;;;;;;;7.22;3.03;;;15.80;99.90;;;;;;5025334;28;20804;-73
2023/06/28 02:00:44;;;;;;;7.30;3.08;;;15.80;99.90;;;;;;5028240;28;20710;-72
2023/06/28 02:03:09;;;;;;;7.85;2.97;;;15.70;99.90;;;;;;5029944;28;20251;-73
2023/06/28 02:05:35;;;;;;;5.97;2.72;;;15.70;99.90;;;;;;5024181;28;20176;-74
2023/06/28 02:08:02;;;;;;;7.28;2.70;;;15.60;99.90;;;;;;5028538;28;20177;-72
2023/06/28 02:10:28;;;;;;;5.90;2.88;;;15.60;99.90;;;;;;5027097;28;20655;-73
2023/06/28 02:12:53;;;;;;;5.05;2.65;;;15.60;99.90;;;;;;5021681;28;20221;-73
2023/06/28 02:15:19;;;;;;;6.25;2.65;;;15.60;99.90;;;;;;5023649;28;20258;-73
2023/06/28 02:17:45;;;;;;;6.93;2.70;;;15.60;99.90;;;;;;5026975;28;20639;-73
2023/06/28 02:20:12;;;;;;;8.88;2.80;;;15.60;99.90;;;;;;5031857;28;20248;-73
2023/06/28 02:22:39;;;;;;;7.10;2.67;;;15.60;99.90;;;;;;5015474;28;20213;-73
2023/06/28 02:25:05;;;;;;;8.75;2.65;;;15.60;99.90;;;;;;5015786;28;20308;-73
2023/06/28 02:27:31;;;;;;;6.30;2.58;;;15.60;99.90;;;;;;5025725;28;20569;-73
2023/06/28 02:29:56;;;;;;;5.53;2.90;;;15.60;99.90;;;;;;5025288;28;20270;-73
2023/06/28 02:32:22;;;;;;;4.43;2.63;;;15.60;99.90;;;;;;5025257;28;20201;-72
2023/06/28 02:34:49;;;;;;;5.72;2.65;;;15.60;99.90;;;;;;5021541;28;20559;-73
2023/06/28 02:37:14;;;;;;;7.80;2.45;;;15.60;99.90;;;;;;5022884;28;20204;-72
2023/06/28 02:39:40;;;;;;;7.90;2.80;;;15.70;99.90;;;;;;5027929;28;20211;-73
2023/06/28 02:42:06;;;;;;;6.63;2.95;;;15.60;99.90;;;;;;5020211;28;20239;-73
2023/06/28 02:44:35;;;;;;;9.32;3.03;;;15.60;99.90;;;;;;5014163;28;20359;-76
2023/06/28 02:47:00;;;;;;;4.50;2.25;;;15.70;99.90;;;;;;5019415;28;20651;-71
2023/06/28 02:49:26;;;;;;;5.55;2.90;;;15.70;99.90;;;;;;5023263;28;20210;-73
2023/06/28 02:51:51;;;;;;;7.43;2.78;;;15.70;99.90;;;;;;5025362;28;20205;-74
2023/06/28 02:54:17;;;;;;;6.90;2.80;;;15.70;99.90;;;;;;5022505;28;20212;-73
2023/06/28 02:56:43;;;;;;;5.97;2.50;;;15.70;99.90;;;;;;5019981;28;20196;-73
2023/06/28 02:59:08;;;;;;;7.55;2.50;;;15.70;99.90;;;;;;5022391;28;20176;-73
2023/06/28 03:01:34;;;;;;;5.47;2.10;;;15.70;99.90;;;;;;5025844;28;20784;-73
2023/06/28 03:03:59;;;;;;;6.60;2.95;;;15.70;99.90;;;;;;5021627;28;20220;-73
2023/06/28 03:06:25;;;;;;;6.53;2.85;;;15.70;99.90;;;;;;5025550;28;20207;-73
2023/06/28 03:08:51;;;;;;;5.93;2.30;;;15.70;99.90;;;;;;5020531;28;20212;-73
2023/06/28 03:11:16;;;;;;;4.78;2.38;;;15.70;99.90;;;;;;5025580;28;20584;-73
2023/06/28 03:13:42;;;;;;;7.30;2.33;;;15.70;99.90;;;;;;5024107;28;20255;-72
2023/06/28 03:16:08;;;;;;;9.88;3.05;;;15.70;99.90;;;;;;5021040;28;20217;-73
2023/06/28 03:18:35;;;;;;;7.05;2.83;;;15.70;99.90;;;;;;5020118;28;20631;-73
2023/06/28 03:21:00;;;;;;;5.82;2.90;;;15.70;99.90;;;;;;5023691;28;20217;-73
2023/06/28 03:23:26;;;;;;;7.55;2.83;;;15.70;99.90;;;;;;5022549;28;20200;-73
2023/06/28 03:25:52;;;;;;;9.10;2.60;;;15.80;99.90;;;;;;5018613;28;20189;-74
2023/06/28 03:28:18;;;;;;;5.78;2.55;;;15.70;99.90;;;;;;5018842;28;20200;-73
2023/06/28 03:30:44;;;;;;;6.07;3.10;;;15.70;99.90;;;;;;5017441;28;20227;-73
2023/06/28 03:33:09;;;;;;;8.38;3.22;;;15.80;99.90;;;;;;5021612;28;20216;-73
2023/06/28 03:35:35;;;;;;;5.45;2.97;;;15.70;99.90;;;;;;5018855;28;20183;-73
2023/06/28 03:38:01;;;;;;;7.00;3.22;;;15.80;99.90;;;;;;5018766;28;20224;-73
2023/06/28 03:40:28;;;;;;;10.02;3.60;;;15.80;99.90;;;;;;5019912;28;20234;-74
2023/06/28 03:42:54;;;;;;;8.35;3.50;;;15.80;99.90;;;;;;5020817;28;20674;-72
2023/06/28 03:45:19;;;;;;;11.80;3.30;;;15.80;99.90;;;;;;5022985;28;20358;-73
2023/06/28 03:47:46;;;;;;;6.32;3.25;;;15.80;99.90;;;;;;5024318;28;20592;-73
2023/06/28 03:50:11;;;;;;;10.27;3.05;;;15.80;99.90;;;;;;5027336;28;20263;-73
2023/06/28 03:52:37;;;;;;;7.10;3.30;;;15.80;99.90;;;;;;5022041;28;20645;-73
2023/06/28 03:55:03;;;;;;;11.25;3.78;;;15.90;99.90;;;;;;5016515;28;20217;-73
2023/06/28 03:57:29;;;;;;;6.80;3.17;;;15.90;99.90;;;;;;5021277;28;20428;-74
2023/06/28 03:59:55;;;;;;;8.70;3.50;;;15.90;99.90;;;;;;5017442;28;20703;-73
2023/06/28 04:02:21;;;;;;;11.80;3.47;;;15.90;99.90;;;;;;5020493;28;20196;-73
2023/06/28 04:04:47;;;;;;;7.47;2.92;;;15.90;99.90;;;;;;5021819;28;20298;-74
2023/06/28 04:07:12;;;;;;;9.00;3.30;;;15.90;99.90;;;;;;5020822;28;20223;-73
2023/06/28 04:09:38;;;;;;;11.55;4.00;;;16.00;99.90;;;;;;5020180;28;20299;-72
2023/06/28 04:12:04;;;;;;;10.10;3.50;;;16.00;99.90;;;;;;5019308;28;20221;-73
2023/06/28 04:14:30;;;;;;;11.82;3.25;;;16.00;99.90;;;;;;5021229;28;20177;-73
2023/06/28 04:16:56;;;;;;;12.23;3.38;;;16.00;99.90;;;;;;5017202;28;20180;-73
2023/06/28 04:19:21;;;;;;;7.03;3.03;;;16.00;99.90;;;;;;5018557;28;20798;-73
2023/06/28 04:21:47;;;;;;;6.75;3.17;;;16.00;99.90;;;;;;5025416;28;20216;-73
2023/06/28 04:24:13;;;;;;;8.00;2.90;;;16.00;99.90;;;;;;5024898;28;20213;-73
2023/06/28 04:26:38;;;;;;;9.93;2.90;;;16.10;99.90;;;;;;5031344;28;20561;-73
2023/06/28 04:29:04;;;;;;;9.20;3.67;;;16.10;99.90;;;;;;5026906;28;20722;-73
2023/06/28 04:31:30;;;;;;;6.63;3.22;;;16.10;99.90;;;;;;5023370;28;20208;-74
2023/06/28 04:33:57;;;;;;;8.10;2.78;;;16.10;99.90;;;;;;5022548;28;20208;-73
2023/06/28 04:36:25;;;;;;;8.27;3.00;;;16.20;99.90;;;;;;5022891;28;20279;-73
2023/06/28 04:38:52;;;;;;;6.38;2.67;;;16.20;99.90;;;;;;5021698;28;20208;-73
2023/06/28 04:41:27;;;;;;;9.70;3.10;;;16.30;99.90;;;;;;5022701;28;20190;-73
2023/06/28 04:43:55;;;;;;;7.80;3.10;;;16.30;99.90;;;;;;5023062;28;20216;-71
2023/06/28 04:46:28;;;;;;;11.68;2.72;;;16.30;99.90;;;;;;5024237;28;20331;-70
2023/06/28 04:48:55;;;;;;;9.40;2.50;;;16.50;99.90;;;;;;5028277;28;20642;-73
2023/06/28 04:51:21;;;;;;;9.70;2.50;;;16.60;99.90;;;;;;5028331;28;20223;-73
2023/06/28 04:53:48;;;;;;;6.80;2.50;;;16.70;99.90;;;;;;5023504;28;20573;-72
2023/06/28 04:56:14;;;;;;;6.32;2.55;;;16.80;99.90;;;;;;5031435;28;20689;-72
2023/06/28 04:58:40;;;;;;;6.90;2.47;;;17.10;99.90;;;;;;5021555;28;20219;-73
2023/06/28 05:01:07;;;;;;;5.60;2.40;;;17.30;99.90;;;;;;5029805;28;20208;-73
2023/06/28 05:03:34;;;;;;;6.13;2.55;;;17.40;99.90;;;;;;5023602;28;20710;-73
2023/06/28 05:06:02;;;;;;;7.82;2.60;;;17.40;99.90;;;;;;5028335;28;20216;-73
2023/06/28 05:08:27;;;;;;;7.47;2.85;;;17.40;99.90;;;;;;5026787;28;20643;-73
2023/06/28 05:10:53;;;;;;;7.47;2.95;;;17.40;99.90;;;;;;5032139;28;20183;-73
2023/06/28 05:13:20;;;;;;;9.48;3.08;;;17.40;99.90;;;;;;5027293;28;20217;-72
2023/06/28 05:15:46;;;;;;;5.57;2.72;;;17.30;99.90;;;;;;5029010;28;20231;-73
2023/06/28 05:18:12;;;;;;;6.38;2.80;;;17.50;99.90;;;;;;5024440;28;20374;-73
2023/06/28 05:20:38;;;;;;;10.45;3.42;;;17.70;99.90;;;;;;5033819;28;20671;-73
2023/06/28 05:23:13;;;;;;;8.98;3.25;;;18.10;99.90;;;;;;5026144;28;20595;-72
2023/06/28 05:25:39;;;;;;;9.30;2.90;;;18.10;99.90;;;;;;5026097;28;20850;-73
2023/06/28 05:28:06;;;;;;;8.65;3.33;;;18.40;99.90;;;;;;5021514;28;20235;-73
2023/06/28 05:30:32;;;;;;;7.72;2.67;;;18.50;99.90;;;;;;5028325;28;20227;-73
2023/06/28 05:33:01;;;;;;;8.63;2.78;;;18.90;99.90;;;;;;5025221;28;20663;-73
2023/06/28 05:35:27;;;;;;;8.63;3.33;;;19.20;99.90;;;;;;5028890;28;20231;-73
2023/06/28 05:37:53;;;;;;;12.40;2.60;;;19.40;99.90;;;;;;5030509;28;20218;-73
2023/06/28 05:40:18;;;;;;;5.93;2.50;;;19.90;99.90;;;;;;5024921;28;20243;-73
2023/06/28 05:42:44;;;;;;;8.02;3.17;;;21.20;99.90;;;;;;5030450;28;20209;-73
2023/06/28 05:45:10;;;;;;;5.40;2.10;;;23.00;99.90;;;;;;5026893;28;20217;-74
2023/06/28 05:47:36;;;;;;;5.07;2.25;;;25.10;99.90;;;;;;5026499;28;20176;-73
2023/06/28 05:50:02;;;;;;;11.25;4.50;;;26.30;99.90;;;;;;5026953;28;20242;-73
2023/06/28 05:52:28;;;;;;;8.48;3.35;;;26.90;99.90;;;;;;5029041;28;20216;-73
2023/06/28 05:54:53;;;;;;;11.68;5.35;;;26.00;99.90;;;;;;5024925;28;20893;-74
2023/06/28 05:57:19;;;;;;;6.93;2.55;;;25.50;99.90;;;;;;5025542;28;20201;-73
2023/06/28 05:59:44;;;;;;;9.48;2.28;;;25.40;99.90;;;;;;5028133;28;20709;-73
2023/06/28 06:02:10;;;;;;;5.35;2.00;;;26.00;99.90;;;;;;5031141;28;20212;-73
2023/06/28 06:04:36;;;;;;;6.20;2.22;;;25.80;99.90;;;;;;5025458;28;20209;-74
2023/06/28 06:07:01;;;;;;;6.93;3.10;;;26.40;99.90;;;;;;5024176;28;20284;-72
2023/06/28 06:09:29;;;;;;;6.43;2.10;;;26.40;99.90;;;;;;5024516;28;20201;-74
2023/06/28 06:11:54;;;;;;;7.05;3.55;;;26.30;99.90;;;;;;5024499;28;20597;-74
2023/06/28 06:14:20;;;;;;;8.05;2.88;;;25.60;99.90;;;;;;5023731;28;20263;-74
2023/06/28 06:16:46;;;;;;;7.05;2.30;;;24.60;99.90;;;;;;5032180;28;20211;-73
2023/06/28 06:19:11;;;;;;;6.47;2.30;;;24.50;99.90;;;;;;5026623;28;20231;-73
2023/06/28 06:21:37;;;;;;;5.85;2.65;;;23.90;99.90;;;;;;5025246;28;20598;-74
2023/06/28 06:24:07;;;;;;;3.83;1.77;;;24.60;99.90;;;;;;5023992;28;20271;-74
2023/06/28 06:26:35;;;;;;;5.63;1.70;;;25.20;99.90;;;;;;5025646;28;20181;-75
2023/06/28 06:29:02;;;;;;;6.30;2.53;;;25.40;99.90;;;;;;5026565;28;20180;-73
2023/06/28 06:31:28;;;;;;;3.90;2.25;;;26.10;99.90;;;;;;5025877;28;20266;-74
2023/06/28 06:34:00;;;;;;;7.35;2.80;;;26.70;99.90;;;;;;5025134;28;20207;-73
2023/06/28 06:36:26;;;;;;;5.70;3.05;;;27.10;99.90;;;;;;5024160;28;20197;-76
2023/06/28 06:38:51;;;;;;;4.80;1.80;;;27.70;99.90;;;;;;5023147;28;20733;-75
2023/06/28 06:41:17;;;;;;;5.85;1.88;;;28.20;99.90;;;;;;5024569;28;20201;-74
2023/06/28 06:43:43;;;;;;;3.75;1.95;;;28.50;99.90;;;;;;5022235;28;20219;-72
2023/06/28 06:46:08;;;;;;;5.00;1.70;;;27.90;99.90;;;;;;5021022;28;20204;-72
2023/06/28 06:48:34;;;;;;;5.80;2.53;;;28.70;99.90;;;;;;5027308;28;20207;-73
2023/06/28 06:50:59;;;;;;;6.43;2.33;;;28.80;99.90;;;;;;5027354;28;20835;-73
2023/06/28 06:53:25;;;;;;;5.78;2.90;;;28.60;99.90;;;;;;5021766;28;20185;-72
2023/06/28 06:55:51;;;;;;;5.70;2.50;;;27.60;99.90;;;;;;5018471;28;20188;-73
2023/06/28 06:58:16;;;;;;;5.10;2.50;;;27.00;99.90;;;;;;5025435;28;20215;-73
2023/06/28 07:00:42;;;;;;;4.78;1.95;;;26.40;99.90;;;;;;5029230;28;20208;-72
2023/06/28 07:03:08;;;;;;;2.95;1.83;;;27.30;99.90;;;;;;5025520;28;20246;-73
2023/06/28 07:05:34;;;;;;;3.47;1.92;;;26.50;99.90;;;;;;5028910;28;20583;-73
2023/06/28 07:07:59;;;;;;;5.93;1.83;;;26.40;99.90;;;;;;5026400;28;20186;-72
2023/06/28 07:10:25;;;;;;;4.53;1.80;;;26.90;99.90;;;;;;5022594;28;20211;-73
2023/06/28 07:12:50;;;;;;;5.40;1.90;;;26.90;99.90;;;;;;5024502;28;20226;-73
2023/06/28 07:15:16;;;;;;;6.43;2.30;;;27.90;99.90;;;;;;5022607;28;20223;-73
2023/06/28 07:17:42;;;;;;;4.60;1.90;;;27.60;99.90;;;;;;5023569;28;20230;-72
2023/06/28 07:20:09;;;;;;;4.35;2.10;;;27.70;99.90;;;;;;5021299;28;20311;-72
2023/06/28 07:22:34;;;;;;;4.75;1.77;;;28.80;99.90;;;;;;5018938;28;20204;-72
2023/06/28 07:25:02;;;;;;;4.43;2.22;;;29.40;99.90;;;;;;5018767;28;20228;-73
2023/06/28 07:27:29;;;;;;;5.10;2.10;;;30.00;99.90;;;;;;5022200;28;20212;-74
2023/06/28 07:29:56;;;;;;;4.78;1.70;;;30.90;99.90;;;;;;5021177;28;20566;-74
2023/06/28 07:32:22;;;;;;;4.35;1.85;;;31.70;98.40;;;;;;5029954;28;20200;-73
2023/06/28 07:34:47;;;;;;;6.07;1.65;;;31.10;98.00;;;;;;5029399;28;20637;-74
2023/06/28 07:37:13;;;;;;;3.92;2.45;;;31.00;98.00;;;;;;5024433;28;20212;-74
2023/06/28 07:39:38;;;;;;;3.17;1.77;;;31.20;96.30;;;;;;5025342;28;20215;-74
2023/06/28 07:42:04;;;;;;;4.35;1.60;;;31.30;96.00;;;;;;5022154;28;20296;-72
2023/06/28 07:44:30;;;;;;;6.32;2.70;;;30.50;95.90;;;;;;5024234;28;20203;-73
2023/06/28 07:46:56;;;;;;;7.30;2.65;;;30.20;96.40;;;;;;5026246;28;20223;-74
2023/06/28 07:49:21;;;;;;;6.32;1.83;;;29.40;97.30;;;;;;5025930;28;20590;-73
2023/06/28 07:51:47;;;;;;;3.70;1.70;;;28.10;98.40;;;;;;5023677;28;20625;-73
2023/06/28 07:54:13;;;;;;;3.58;1.58;;;26.70;99.90;;;;;;5019323;28;20209;-73
2023/06/28 07:56:38;;;;;;;5.75;1.83;;;26.10;99.90;;;;;;5023275;28;20215;-72
2023/06/28 07:59:05;;;;;;;4.57;1.77;;;25.90;99.90;;;;;;5024326;28;20172;-73
2023/06/28 08:01:33;;;;;;;5.43;1.55;;;25.70;99.90;;;;;;5027508;28;20562;-73
2023/06/28 08:03:59;;;;;;;6.38;2.08;;;25.90;99.90;;;;;;5022427;28;20263;-73
2023/06/28 08:06:25;;;;;;;6.72;1.90;;;25.80;99.90;;;;;;5024650;28;20292;-74
2023/06/28 08:08:51;;;;;;;4.68;1.95;;;26.00;99.90;;;;;;5026015;28;20291;-73
2023/06/28 08:11:16;;;;;;;4.88;2.40;;;25.90;99.90;;;;;;5030237;28;20212;-75
2023/06/28 08:13:42;;;;;;;10.13;5.93;;;25.90;99.90;;;;;;5030797;28;20640;-73
2023/06/28 08:16:10;;;;;;;4.25;2.22;;;26.00;99.90;;;;;;5031525;28;20216;-73
2023/06/28 08:18:36;;;;;;;2.95;1.65;;;25.90;99.90;;;;;;5030417;28;20273;-73
2023/06/28 08:21:01;;;;;;;5.95;2.33;;;25.70;99.90;;;;;;5022064;28;20311;-73
2023/06/28 08:23:27;;;;;;;5.78;1.80;;;25.40;99.90;;;;;;5029979;28;20283;-74
2023/06/28 08:25:52;;;;;;;3.78;2.13;;;24.80;99.90;;;;;;5025223;28;20168;-73
2023/06/28 08:28:18;;;;;;;17.33;9.57;;;24.60;99.90;;;;;;5026434;28;20675;-73
2023/06/28 08:30:44;;;;;;;4.13;2.85;;;24.50;99.90;;;;;;5022044;28;20209;-73
2023/06/28 08:33:11;;;;;;;5.65;1.90;;;24.60;99.90;;;;;;5024130;28;20217;-72
2023/06/28 08:35:37;;;;;;;7.15;4.20;;;25.10;99.90;;;;;;5027756;28;20176;-72
2023/06/28 08:38:03;;;;;;;3.53;1.88;;;25.70;99.90;;;;;;5024655;28;20544;-72
2023/06/28 08:40:30;;;;;;;2.88;1.83;;;26.40;99.90;;;;;;5025600;28;20205;-73
2023/06/28 08:43:00;;;;;;;7.05;4.35;;;26.30;99.90;;;;;;5027224;28;20208;-73
2023/06/28 08:45:26;;;;;;;5.38;2.50;;;26.30;99.90;;;;;;5023836;28;20220;-73
2023/06/28 08:47:54;;;;;;;4.50;1.92;;;26.40;99.90;;;;;;5027894;28;20286;-73
2023/06/28 08:50:21;;;;;;;5.45;2.65;;;26.30;99.90;;;;;;5032250;28;20677;-73
2023/06/28 08:52:47;;;;;;;4.05;1.75;;;26.40;99.90;;;;;;5028479;28;20224;-73
2023/06/28 08:55:13;;;;;;;5.88;2.58;;;27.00;99.90;;;;;;5024925;28;20274;-73
2023/06/28 08:57:40;;;;;;;6.57;2.50;;;27.60;99.90;;;;;;5046058;28;20210;-73
2023/06/28 09:00:10;;;;;;;3.33;1.63;;;27.80;99.90;;;;;;5028826;28;20212;-73
2023/06/28 09:02:36;;;;;;;4.93;1.95;;;28.30;99.90;;;;;;5025041;28;20570;-73
2023/06/28 09:05:03;;;;;;;2.28;1.20;;;29.10;99.90;;;;;;5025648;28;20192;-73
2023/06/28 09:07:31;;;;;;;4.82;2.05;;;29.20;99.00;;;;;;5025339;28;20216;-72
2023/06/28 09:09:56;;;;;;;4.00;1.60;;;29.20;98.70;;;;;;5027041;28;20204;-73
2023/06/28 09:12:23;;;;;;;4.75;1.92;;;28.80;98.70;;;;;;5024098;28;20228;-73
2023/06/28 09:14:50;;;;;;;4.50;1.77;;;28.70;99.70;;;;;;5025776;28;20238;-72
2023/06/28 09:17:16;;;;;;;3.47;1.75;;;29.50;98.70;;;;;;5028584;28;20644;-73
2023/06/28 09:19:41;;;;;;;5.50;2.30;;;29.50;97.40;;;;;;5025662;28;20347;-72
2023/06/28 09:22:10;;;;;;;3.47;2.40;;;29.50;96.90;;;;;;5017813;28;20304;-73
2023/06/28 09:24:36;;;;;;;4.40;2.63;;;29.40;97.20;;;;;;5023368;28;20266;-72
2023/06/28 09:27:04;;;;;;;3.72;2.92;;;28.50;97.50;;;;;;5031427;28;20706;-73
2023/06/28 09:29:30;;;;;;;4.38;1.88;;;27.70;99.80;;;;;;5028026;28;20189;-73
2023/06/28 09:31:55;;;;;;;4.57;1.83;;;27.40;99.90;;;;;;5030310;28;20215;-73
2023/06/28 09:34:25;;;;;;;3.78;1.35;;;27.10;99.90;;;;;;5028946;28;20216;-73
2023/06/28 09:36:55;;;;;;;7.68;1.70;;;27.00;99.90;;;;;;5024726;28;20262;-73
2023/06/28 09:39:22;;;;;;;4.13;1.75;;;27.00;99.90;;;;;;5023928;28;20746;-73
2023/06/28 09:41:49;;;;;;;3.65;1.65;;;26.50;99.90;;;;;;5027139;28;20703;-73
2023/06/28 09:44:15;;;;;;;2.45;1.45;;;25.70;99.90;;;;;;5024173;28;20241;-73
2023/06/28 09:46:45;;;;;;;2.47;1.65;;;25.60;99.90;;;;;;5025286;28;20766;-73
2023/06/28 09:49:21;;;;;;;2.90;1.45;;;25.40;99.90;;;;;;5021350;28;20324;-72
2023/06/28 09:51:59;;;;;;;3.65;2.17;;;26.10;99.90;;;;;;5025114;28;20215;-73
2023/06/28 09:54:32;;;;;;;3.63;1.42;;;26.20;99.90;;;;;;5020803;28;20217;-73
2023/06/28 09:56:59;;;;;;;6.65;3.15;;;26.20;99.90;;;;;;5023515;28;20219;-72
2023/06/28 09:59:28;;;;;;;2.55;1.80;;;26.00;99.90;;;;;;5022464;28;20254;-73
2023/06/28 10:01:57;;;;;;;4.57;2.08;;;25.40;99.90;;;;;;5021381;28;20197;-73
2023/06/28 10:04:28;;;;;;;5.32;1.42;;;25.10;99.90;;;;;;5025544;28;20212;-75
2023/06/28 10:07:02;;;;;;;4.28;1.33;;;25.10;99.90;;;;;;5026309;28;20286;-74
2023/06/28 10:09:33;;;;;;;5.05;2.42;;;25.10;99.90;;;;;;5025036;28;20208;-72
2023/06/28 10:12:03;;;;;;;4.30;1.98;;;25.40;99.90;;;;;;5029744;28;20248;-71
2023/06/28 10:14:34;;;;;;;4.65;2.50;;;25.50;99.90;;;;;;5023341;28;20181;-72
2023/06/28 10:17:00;;;;;;;5.75;2.92;;;25.40;99.90;;;;;;5022831;28;20705;-72
2023/06/28 10:19:28;;;;;;;3.13;1.35;;;25.20;99.90;;;;;;5022845;28;20216;-73
2023/06/28 10:21:56;;;;;;;5.18;2.95;;;24.90;99.90;;;;;;5019765;28;20208;-73
2023/06/28 10:24:22;;;;;;;7.45;2.20;;;24.70;99.90;;;;;;5019942;28;20307;-73
2023/06/28 10:26:49;;;;;;;3.78;1.80;;;25.10;99.90;;;;;;5026336;28;20590;-73
2023/06/28 10:29:16;;;;;;;5.20;1.70;;;25.40;99.90;;;;;;5026486;28;20260;-73
2023/06/28 10:31:42;;;;;;;8.68;2.10;;;25.80;99.90;;;;;;5025208;28;20352;-73
2023/06/28 10:34:09;;;;;;;2.55;1.80;;;25.80;99.90;;;;;;5021693;28;20220;-73
2023/06/28 10:36:35;;;;;;;3.00;1.30;;;26.00;99.90;;;;;;5022772;28;20221;-73
2023/06/28 10:39:00;;;;;;;3.20;1.60;;;26.00;99.90;;;;;;5020645;28;20212;-73
2023/06/28 10:41:26;;;;;;;3.22;1.90;;;25.80;99.90;;;;;;5021556;28;20690;-76
2023/06/28 10:44:05;;;;;;;10.63;7.00;;;25.50;99.90;;;;;;5030672;28;20196;-72
2023/06/28 10:46:31;;;;;;;5.18;1.80;;;25.70;99.90;;;;;;5023568;28;20209;-71
2023/06/28 10:49:03;;;;;;;5.45;1.98;;;25.90;99.90;;;;;;5025583;28;20722;-71
2023/06/28 10:51:33;;;;;;;4.20;2.10;;;26.10;99.90;;;;;;5026725;28;20225;-73
2023/06/28 10:54:12;;;;;;;2.88;1.65;;;26.10;99.90;;;;;;5018954;28;20216;-72
2023/06/28 10:56:48;;;;;;;4.22;1.65;;;25.90;99.90;;;;;;5011650;28;20678;-71
2023/06/28 10:59:14;;;;;;;3.40;1.40;;;25.80;99.90;;;;;;5019888;28;20206;-71
2023/06/28 11:01:49;;;;;;;3.80;1.77;;;25.50;99.90;;;;;;5004699;28;20328;-73
2023/06/28 11:04:18;;;;;;;2.92;1.48;;;25.60;99.90;;;;;;5004512;28;20216;-74
2023/06/28 11:06:46;;;;;;;2.65;1.52;;;25.50;99.90;;;;;;5014922;28;20700;-72
2023/06/28 11:09:17;;;;;;;5.55;1.77;;;25.60;99.90;;;;;;5013430;28;20274;-71
2023/06/28 11:11:54;;;;;;;6.30;1.80;;;25.70;99.90;;;;;;5004923;28;20236;-71
2023/06/28 11:14:27;;;;;;;2.22;1.50;;;25.50;99.90;;;;;;5006329;28;20358;-71
2023/06/28 11:17:14;;;;;;;4.93;1.92;;;25.20;99.90;;;;;;5011783;28;20251;-71
2023/06/28 11:19:42;;;;;;;4.47;1.83;;;25.10;99.90;;;;;;5017796;28;20355;-71
2023/06/28 11:22:07;;;;;;;4.28;1.80;;;24.90;99.90;;;;;;5020946;28;20844;-72
2023/06/28 11:24:33;;;;;;;3.55;1.90;;;24.80;99.90;;;;;;5020715;28;20304;-72
2023/06/28 11:26:59;;;;;;;6.10;2.00;;;24.90;99.90;;;;;;5026994;28;20872;-71
2023/06/28 11:29:25;;;;;;;4.88;1.83;;;25.10;99.90;;;;;;5026189;28;20176;-72
2023/06/28 11:31:52;;;;;;;3.08;1.27;;;25.10;99.90;;;;;;5022123;28;20211;-72
2023/06/28 11:34:19;;;;;;;4.20;2.10;;;25.20;99.90;;;;;;5023700;28;20699;-71
2023/06/28 11:36:47;;;;;;;8.68;5.00;;;25.20;99.90;;;;;;5022273;28;20213;-72
2023/06/28 11:39:17;;;;;;;4.32;3.00;;;25.10;99.90;;;;;;5022832;28;20243;-73
2023/06/28 11:41:44;;;;;;;13.02;9.50;;;25.30;99.90;;;;;;5022528;28;20192;-73
2023/06/28 11:44:11;;;;;;;37.65;26.05;;;25.40;99.90;;;;;;5024116;28;20212;-73
2023/06/28 11:46:38;;;;;;;11.20;6.93;;;25.70;99.90;;;;;;5022717;28;20233;-72
2023/06/28 11:49:04;;;;;;;7.32;5.13;;;25.80;99.90;;;;;;5023007;28;20577;-72
2023/06/28 11:51:33;;;;;;;4.18;2.25;;;25.90;99.90;;;;;;5022008;28;20232;-72
2023/06/28 11:53:58;;;;;;;3.10;2.00;;;25.90;99.90;;;;;;5017706;28;20213;-71
2023/06/28 11:56:53;;;;;;;5.93;2.67;;;25.90;99.90;;;;;;5018888;28;20268;-72
2023/06/28 11:59:24;;;;;;;6.90;4.97;;;25.90;99.90;;;;;;5009203;28;20275;-72
2023/06/28 12:02:05;;;;;;;14.40;9.48;;;25.70;99.90;;;;;;5026980;28;20215;-72
2023/06/28 12:04:31;;;;;;;6.35;2.55;;;25.90;99.90;;;;;;5028218;28;20732;-73
2023/06/28 12:07:01;;;;;;;2.78;1.92;;;25.70;99.90;;;;;;5025192;28;20223;-72
2023/06/28 12:09:28;;;;;;;3.28;1.73;;;25.50;99.90;;;;;;5027906;28;20851;-72
2023/06/28 12:11:59;;;;;;;4.72;1.80;;;25.60;99.90;;;;;;5027143;28;20298;-72
2023/06/28 12:14:25;;;;;;;4.22;1.80;;;25.70;99.90;;;;;;5022681;28;20180;-72
2023/06/28 12:16:51;;;;;;;5.20;1.55;;;25.90;99.90;;;;;;5026323;28;20172;-72
2023/06/28 12:19:18;;;;;;;5.40;3.28;;;26.20;99.90;;;;;;5024329;28;20231;-71
2023/06/28 12:21:44;;;;;;;9.35;3.78;;;25.90;99.90;;;;;;5024990;28;20566;-73
2023/06/28 12:24:16;;;;;;;14.00;6.85;;;26.00;99.90;;;;;;5019171;28;20216;-72
2023/06/28 12:26:47;;;;;;;3.60;1.75;;;26.20;99.90;;;;;;5022884;28;20192;-73
2023/06/28 12:29:13;;;;;;;5.15;2.25;;;26.20;99.90;;;;;;5021665;28;20652;-72
2023/06/28 12:31:46;;;;;;;4.10;2.35;;;26.30;99.90;;;;;;5023398;28;20271;-72
2023/06/28 12:34:13;;;;;;;5.20;1.90;;;26.20;99.90;;;;;;5018284;28;20220;-73
2023/06/28 12:36:40;;;;;;;3.78;1.52;;;26.00;99.90;;;;;;5019728;28;20663;-72
2023/06/28 12:39:07;;;;;;;2.92;1.83;;;25.90;99.90;;;;;;5028337;28;20236;-72
2023/06/28 12:41:33;;;;;;;4.28;1.70;;;25.90;99.90;;;;;;5025252;28;20287;-72
2023/06/28 12:43:58;;;;;;;3.70;1.90;;;25.70;99.90;;;;;;5027993;28;20274;-71